sensor_id;sensor_type;location;lat;lon;timestamp;P1;durP1;ratioP1;P2;durP2;ratioP2
55497;SDS011;41357;52.806;18.268;2024-01-30T00:01:51;36.58;;;12.43;;
55497;SDS011;41357;52.806;18.268;2024-01-30T00:04:17;37.67;;;12.10;;
55497;SDS011;41357;52.806;18.268;2024-01-30T00:06:43;22.77;;;9.75;;
55497;SDS011;41357;52.806;18.268;2024-01-30T00:09:09;37.63;;;13.60;;
55497;SDS011;41357;52.806;18.268;2024-01-30T00:11:36;35.10;;;12.45;;
55497;SDS011;41357;52.806;18.268;2024-01-30T00:14:03;39.30;;;11.77;;
55497;SDS011;41357;52.806;18.268;2024-01-30T00:16:29;35.03;;;11.63;;
55497;SDS011;41357;52.806;18.268;2024-01-30T00:18:55;40.72;;;12.10;;
55497;SDS011;41357;52.806;18.268;2024-01-30T00:21:21;41.80;;;12.10;;
55497;SDS011;41357;52.806;18.268;2024-01-30T00:23:47;31.17;;;10.98;;
55497;SDS011;41357;52.806;18.268;2024-01-30T00:26:15;30.45;;;12.23;;
55497;SDS011;41357;52.806;18.268;2024-01-30T00:28:42;33.20;;;11.93;;
55497;SDS011;41357;52.806;18.268;2024-01-30T00:31:08;40.33;;;13.45;;
55497;SDS011;41357;52.806;18.268;2024-01-30T00:33:38;32.55;;;13.10;;
55497;SDS011;41357;52.806;18.268;2024-01-30T00:36:05;29.38;;;11.80;;
55497;SDS011;41357;52.806;18.268;2024-01-30T00:38:31;29.35;;;11.30;;
55497;SDS011;41357;52.806;18.268;2024-01-30T00:40:58;31.63;;;12.82;;
55497;SDS011;41357;52.806;18.268;2024-01-30T00:43:24;28.85;;;9.68;;
55497;SDS011;41357;52.806;18.268;2024-01-30T00:45:50;31.60;;;11.02;;
55497;SDS011;41357;52.806;18.268;2024-01-30T00:48:20;33.50;;;12.32;;
55497;SDS011;41357;52.806;18.268;2024-01-30T00:50:46;27.35;;;10.80;;
55497;SDS011;41357;52.806;18.268;2024-01-30T00:53:12;38.95;;;12.30;;
55497;SDS011;41357;52.806;18.268;2024-01-30T00:55:38;35.15;;;12.88;;
55497;SDS011;41357;52.806;18.268;2024-01-30T00:58:04;35.42;;;13.70;;
55497;SDS011;41357;52.806;18.268;2024-01-30T01:00:31;40.20;;;12.73;;
55497;SDS011;41357;52.806;18.268;2024-01-30T01:02:58;30.92;;;11.50;;
55497;SDS011;41357;52.806;18.268;2024-01-30T01:05:24;30.88;;;12.10;;
55497;SDS011;41357;52.806;18.268;2024-01-30T01:07:50;29.25;;;12.77;;
55497;SDS011;41357;52.806;18.268;2024-01-30T01:10:16;34.03;;;12.60;;
55497;SDS011;41357;52.806;18.268;2024-01-30T01:12:43;30.60;;;10.82;;
55497;SDS011;41357;52.806;18.268;2024-01-30T01:15:09;28.05;;;11.52;;
55497;SDS011;41357;52.806;18.268;2024-01-30T01:17:36;29.20;;;10.40;;
55497;SDS011;41357;52.806;18.268;2024-01-30T01:20:03;25.17;;;9.23;;
55497;SDS011;41357;52.806;18.268;2024-01-30T01:22:33;26.02;;;10.43;;
55497;SDS011;41357;52.806;18.268;2024-01-30T01:24:59;23.15;;;10.45;;
55497;SDS011;41357;52.806;18.268;2024-01-30T01:27:25;17.90;;;8.15;;
55497;SDS011;41357;52.806;18.268;2024-01-30T01:29:51;39.92;;;11.10;;
55497;SDS011;41357;52.806;18.268;2024-01-30T01:32:18;25.02;;;9.80;;
55497;SDS011;41357;52.806;18.268;2024-01-30T01:34:44;28.23;;;11.32;;
55497;SDS011;41357;52.806;18.268;2024-01-30T01:37:10;28.38;;;9.75;;
55497;SDS011;41357;52.806;18.268;2024-01-30T01:39:36;25.02;;;9.57;;
55497;SDS011;41357;52.806;18.268;2024-01-30T01:42:03;23.20;;;9.23;;
55497;SDS011;41357;52.806;18.268;2024-01-30T01:44:29;20.75;;;8.65;;
55497;SDS011;41357;52.806;18.268;2024-01-30T01:46:55;25.92;;;10.23;;
55497;SDS011;41357;52.806;18.268;2024-01-30T01:49:26;22.10;;;9.13;;
55497;SDS011;41357;52.806;18.268;2024-01-30T01:51:53;31.60;;;10.40;;
55497;SDS011;41357;52.806;18.268;2024-01-30T01:54:20;25.95;;;9.75;;
55497;SDS011;41357;52.806;18.268;2024-01-30T01:56:47;28.38;;;10.55;;
55497;SDS011;41357;52.806;18.268;2024-01-30T01:59:13;29.08;;;10.07;;
55497;SDS011;41357;52.806;18.268;2024-01-30T02:01:39;31.92;;;10.68;;
55497;SDS011;41357;52.806;18.268;2024-01-30T02:04:07;30.95;;;9.75;;
55497;SDS011;41357;52.806;18.268;2024-01-30T02:06:34;32.92;;;10.45;;
55497;SDS011;41357;52.806;18.268;2024-01-30T02:09:00;27.45;;;9.95;;
55497;SDS011;41357;52.806;18.268;2024-01-30T02:11:26;31.73;;;10.95;;
55497;SDS011;41357;52.806;18.268;2024-01-30T02:13:53;25.05;;;8.32;;
55497;SDS011;41357;52.806;18.268;2024-01-30T02:16:19;27.92;;;9.52;;
55497;SDS011;41357;52.806;18.268;2024-01-30T02:18:48;31.48;;;11.43;;
55497;SDS011;41357;52.806;18.268;2024-01-30T02:21:17;24.27;;;10.15;;
55497;SDS011;41357;52.806;18.268;2024-01-30T02:23:44;25.63;;;10.20;;
55497;SDS011;41357;52.806;18.268;2024-01-30T02:26:12;29.75;;;10.27;;
55497;SDS011;41357;52.806;18.268;2024-01-30T02:28:38;22.00;;;9.30;;
55497;SDS011;41357;52.806;18.268;2024-01-30T02:31:05;33.63;;;11.68;;
55497;SDS011;41357;52.806;18.268;2024-01-30T02:33:31;31.67;;;10.45;;
55497;SDS011;41357;52.806;18.268;2024-01-30T02:35:57;23.25;;;10.20;;
55497;SDS011;41357;52.806;18.268;2024-01-30T02:38:24;27.00;;;10.25;;
55497;SDS011;41357;52.806;18.268;2024-01-30T02:40:51;28.23;;;10.07;;
55497;SDS011;41357;52.806;18.268;2024-01-30T02:43:18;34.85;;;11.40;;
55497;SDS011;41357;52.806;18.268;2024-01-30T02:45:44;26.13;;;10.95;;
55497;SDS011;41357;52.806;18.268;2024-01-30T02:48:10;23.60;;;9.35;;
55497;SDS011;41357;52.806;18.268;2024-01-30T02:50:36;32.05;;;11.43;;
55497;SDS011;41357;52.806;18.268;2024-01-30T02:53:02;33.50;;;11.05;;
55497;SDS011;41357;52.806;18.268;2024-01-30T02:55:29;29.27;;;10.68;;
55497;SDS011;41357;52.806;18.268;2024-01-30T02:57:55;30.35;;;12.25;;
55497;SDS011;41357;52.806;18.268;2024-01-30T03:00:21;25.77;;;11.23;;
55497;SDS011;41357;52.806;18.268;2024-01-30T03:02:47;25.95;;;10.90;;
55497;SDS011;41357;52.806;18.268;2024-01-30T03:05:13;33.83;;;11.40;;
55497;SDS011;41357;52.806;18.268;2024-01-30T03:07:39;27.33;;;10.20;;
55497;SDS011;41357;52.806;18.268;2024-01-30T03:10:05;27.15;;;11.82;;
55497;SDS011;41357;52.806;18.268;2024-01-30T03:12:32;26.33;;;10.20;;
55497;SDS011;41357;52.806;18.268;2024-01-30T03:14:58;24.25;;;9.73;;
55497;SDS011;41357;52.806;18.268;2024-01-30T03:17:24;30.38;;;10.80;;
55497;SDS011;41357;52.806;18.268;2024-01-30T03:19:50;26.52;;;10.73;;
55497;SDS011;41357;52.806;18.268;2024-01-30T03:22:17;28.08;;;11.18;;
55497;SDS011;41357;52.806;18.268;2024-01-30T03:24:43;34.28;;;11.57;;
55497;SDS011;41357;52.806;18.268;2024-01-30T03:27:09;36.88;;;10.70;;
55497;SDS011;41357;52.806;18.268;2024-01-30T03:29:35;32.15;;;10.55;;
55497;SDS011;41357;52.806;18.268;2024-01-30T03:32:01;32.25;;;10.38;;
55497;SDS011;41357;52.806;18.268;2024-01-30T03:34:29;28.10;;;11.25;;
55497;SDS011;41357;52.806;18.268;2024-01-30T03:36:55;31.65;;;11.43;;
55497;SDS011;41357;52.806;18.268;2024-01-30T03:39:21;23.13;;;10.57;;
55497;SDS011;41357;52.806;18.268;2024-01-30T03:41:47;31.13;;;10.95;;
55497;SDS011;41357;52.806;18.268;2024-01-30T03:44:13;30.48;;;11.80;;
55497;SDS011;41357;52.806;18.268;2024-01-30T03:46:39;28.88;;;12.43;;
55497;SDS011;41357;52.806;18.268;2024-01-30T03:49:05;34.33;;;12.02;;
55497;SDS011;41357;52.806;18.268;2024-01-30T03:51:31;30.17;;;11.13;;
55497;SDS011;41357;52.806;18.268;2024-01-30T03:53:58;23.25;;;10.85;;
55497;SDS011;41357;52.806;18.268;2024-01-30T03:56:24;21.30;;;9.45;;
55497;SDS011;41357;52.806;18.268;2024-01-30T03:58:51;25.67;;;11.50;;
55497;SDS011;41357;52.806;18.268;2024-01-30T04:01:17;24.92;;;10.95;;
55497;SDS011;41357;52.806;18.268;2024-01-30T04:03:43;26.50;;;10.88;;
55497;SDS011;41357;52.806;18.268;2024-01-30T04:06:10;25.98;;;10.98;;
55497;SDS011;41357;52.806;18.268;2024-01-30T04:08:36;24.20;;;11.52;;
55497;SDS011;41357;52.806;18.268;2024-01-30T04:11:06;22.70;;;10.98;;
55497;SDS011;41357;52.806;18.268;2024-01-30T04:13:32;27.58;;;11.55;;
55497;SDS011;41357;52.806;18.268;2024-01-30T04:15:59;28.85;;;10.90;;
55497;SDS011;41357;52.806;18.268;2024-01-30T04:18:28;33.53;;;9.32;;
55497;SDS011;41357;52.806;18.268;2024-01-30T04:20:55;20.55;;;10.40;;
55497;SDS011;41357;52.806;18.268;2024-01-30T04:23:21;40.85;;;12.15;;
55497;SDS011;41357;52.806;18.268;2024-01-30T04:25:47;37.60;;;15.95;;
55497;SDS011;41357;52.806;18.268;2024-01-30T04:28:13;42.22;;;16.05;;
55497;SDS011;41357;52.806;18.268;2024-01-30T04:30:39;51.72;;;17.60;;
55497;SDS011;41357;52.806;18.268;2024-01-30T04:33:05;40.53;;;15.82;;
55497;SDS011;41357;52.806;18.268;2024-01-30T04:35:31;39.95;;;14.27;;
55497;SDS011;41357;52.806;18.268;2024-01-30T04:37:57;31.90;;;12.27;;
55497;SDS011;41357;52.806;18.268;2024-01-30T04:40:24;31.02;;;13.43;;
55497;SDS011;41357;52.806;18.268;2024-01-30T04:42:50;55.60;;;17.20;;
55497;SDS011;41357;52.806;18.268;2024-01-30T04:45:16;44.90;;;17.48;;
55497;SDS011;41357;52.806;18.268;2024-01-30T04:47:42;35.65;;;14.05;;
55497;SDS011;41357;52.806;18.268;2024-01-30T04:50:08;33.63;;;13.48;;
55497;SDS011;41357;52.806;18.268;2024-01-30T04:52:34;43.58;;;15.85;;
55497;SDS011;41357;52.806;18.268;2024-01-30T04:55:01;35.75;;;13.80;;
55497;SDS011;41357;52.806;18.268;2024-01-30T04:57:27;41.38;;;14.15;;
55497;SDS011;41357;52.806;18.268;2024-01-30T04:59:53;31.77;;;11.57;;
55497;SDS011;41357;52.806;18.268;2024-01-30T05:02:19;28.45;;;11.63;;
55497;SDS011;41357;52.806;18.268;2024-01-30T05:04:45;33.30;;;11.68;;
55497;SDS011;41357;52.806;18.268;2024-01-30T05:07:11;29.42;;;10.50;;
55497;SDS011;41357;52.806;18.268;2024-01-30T05:09:37;28.85;;;10.82;;
55497;SDS011;41357;52.806;18.268;2024-01-30T05:12:03;35.95;;;12.10;;
55497;SDS011;41357;52.806;18.268;2024-01-30T05:14:30;33.10;;;11.70;;
55497;SDS011;41357;52.806;18.268;2024-01-30T05:16:56;24.48;;;9.32;;
55497;SDS011;41357;52.806;18.268;2024-01-30T05:19:22;30.02;;;10.32;;
55497;SDS011;41357;52.806;18.268;2024-01-30T05:21:48;27.52;;;10.80;;
55497;SDS011;41357;52.806;18.268;2024-01-30T05:24:14;34.85;;;12.05;;
55497;SDS011;41357;52.806;18.268;2024-01-30T05:26:41;34.00;;;13.60;;
55497;SDS011;41357;52.806;18.268;2024-01-30T05:29:07;54.92;;;19.60;;
55497;SDS011;41357;52.806;18.268;2024-01-30T05:31:33;43.58;;;15.07;;
55497;SDS011;41357;52.806;18.268;2024-01-30T05:34:00;62.20;;;21.17;;
55497;SDS011;41357;52.806;18.268;2024-01-30T05:36:26;49.40;;;15.93;;
55497;SDS011;41357;52.806;18.268;2024-01-30T05:38:52;37.97;;;12.63;;
55497;SDS011;41357;52.806;18.268;2024-01-30T05:41:18;38.33;;;13.13;;
55497;SDS011;41357;52.806;18.268;2024-01-30T05:43:46;32.28;;;13.23;;
55497;SDS011;41357;52.806;18.268;2024-01-30T05:46:12;45.65;;;13.43;;
55497;SDS011;41357;52.806;18.268;2024-01-30T05:48:38;41.00;;;14.70;;
55497;SDS011;41357;52.806;18.268;2024-01-30T05:51:04;36.55;;;14.38;;
55497;SDS011;41357;52.806;18.268;2024-01-30T05:53:32;42.72;;;14.13;;
55497;SDS011;41357;52.806;18.268;2024-01-30T05:55:59;33.10;;;12.77;;
55497;SDS011;41357;52.806;18.268;2024-01-30T05:58:25;30.77;;;13.75;;
55497;SDS011;41357;52.806;18.268;2024-01-30T06:00:52;48.28;;;14.68;;
55497;SDS011;41357;52.806;18.268;2024-01-30T06:03:18;31.17;;;12.68;;
55497;SDS011;41357;52.806;18.268;2024-01-30T06:05:44;35.78;;;14.32;;
55497;SDS011;41357;52.806;18.268;2024-01-30T06:08:10;54.08;;;19.13;;
55497;SDS011;41357;52.806;18.268;2024-01-30T06:10:36;46.28;;;17.15;;
55497;SDS011;41357;52.806;18.268;2024-01-30T06:13:03;37.08;;;14.85;;
55497;SDS011;41357;52.806;18.268;2024-01-30T06:15:29;53.63;;;18.02;;
55497;SDS011;41357;52.806;18.268;2024-01-30T06:17:55;44.03;;;17.25;;
55497;SDS011;41357;52.806;18.268;2024-01-30T06:20:21;53.95;;;18.42;;
55497;SDS011;41357;52.806;18.268;2024-01-30T06:22:47;44.10;;;18.67;;
55497;SDS011;41357;52.806;18.268;2024-01-30T06:25:13;32.40;;;13.52;;
55497;SDS011;41357;52.806;18.268;2024-01-30T06:27:41;51.67;;;19.65;;
55497;SDS011;41357;52.806;18.268;2024-01-30T06:30:07;42.83;;;15.40;;
55497;SDS011;41357;52.806;18.268;2024-01-30T06:32:33;37.55;;;14.50;;
55497;SDS011;41357;52.806;18.268;2024-01-30T06:35:01;38.05;;;14.07;;
55497;SDS011;41357;52.806;18.268;2024-01-30T06:37:27;35.92;;;14.98;;
55497;SDS011;41357;52.806;18.268;2024-01-30T06:39:53;35.13;;;12.68;;
55497;SDS011;41357;52.806;18.268;2024-01-30T06:42:19;27.55;;;12.13;;
55497;SDS011;41357;52.806;18.268;2024-01-30T06:44:46;31.52;;;12.23;;
55497;SDS011;41357;52.806;18.268;2024-01-30T06:47:12;34.97;;;12.13;;
55497;SDS011;41357;52.806;18.268;2024-01-30T06:49:38;20.52;;;10.95;;
55497;SDS011;41357;52.806;18.268;2024-01-30T06:52:07;32.42;;;12.90;;
55497;SDS011;41357;52.806;18.268;2024-01-30T06:54:34;29.30;;;12.20;;
55497;SDS011;41357;52.806;18.268;2024-01-30T06:57:00;34.00;;;12.63;;
55497;SDS011;41357;52.806;18.268;2024-01-30T06:59:26;40.17;;;12.50;;
55497;SDS011;41357;52.806;18.268;2024-01-30T07:01:53;33.55;;;11.50;;
55497;SDS011;41357;52.806;18.268;2024-01-30T07:04:19;34.53;;;13.95;;
55497;SDS011;41357;52.806;18.268;2024-01-30T07:06:45;32.75;;;11.80;;
55497;SDS011;41357;52.806;18.268;2024-01-30T07:09:11;36.78;;;14.77;;
55497;SDS011;41357;52.806;18.268;2024-01-30T07:11:38;51.72;;;14.90;;
55497;SDS011;41357;52.806;18.268;2024-01-30T07:14:04;31.83;;;13.23;;
55497;SDS011;41357;52.806;18.268;2024-01-30T07:16:31;34.55;;;14.77;;
55497;SDS011;41357;52.806;18.268;2024-01-30T07:18:57;43.55;;;14.65;;
55497;SDS011;41357;52.806;18.268;2024-01-30T07:21:23;29.98;;;13.73;;
55497;SDS011;41357;52.806;18.268;2024-01-30T07:23:53;33.00;;;11.90;;
55497;SDS011;41357;52.806;18.268;2024-01-30T07:26:20;27.98;;;11.55;;
55497;SDS011;41357;52.806;18.268;2024-01-30T07:28:46;35.78;;;13.77;;
55497;SDS011;41357;52.806;18.268;2024-01-30T07:31:12;28.60;;;12.98;;
55497;SDS011;41357;52.806;18.268;2024-01-30T07:33:38;29.48;;;10.90;;
55497;SDS011;41357;52.806;18.268;2024-01-30T07:36:04;40.40;;;14.60;;
55497;SDS011;41357;52.806;18.268;2024-01-30T07:38:33;26.67;;;11.23;;
55497;SDS011;41357;52.806;18.268;2024-01-30T07:41:00;39.60;;;14.93;;
55497;SDS011;41357;52.806;18.268;2024-01-30T07:43:26;31.40;;;13.00;;
55497;SDS011;41357;52.806;18.268;2024-01-30T07:45:52;36.72;;;13.82;;
55497;SDS011;41357;52.806;18.268;2024-01-30T07:48:18;39.63;;;15.20;;
55497;SDS011;41357;52.806;18.268;2024-01-30T07:50:44;39.45;;;15.40;;
55497;SDS011;41357;52.806;18.268;2024-01-30T07:53:10;47.25;;;16.83;;
55497;SDS011;41357;52.806;18.268;2024-01-30T07:55:37;38.30;;;14.63;;
55497;SDS011;41357;52.806;18.268;2024-01-30T07:58:03;37.92;;;15.73;;
55497;SDS011;41357;52.806;18.268;2024-01-30T08:00:30;37.38;;;16.50;;
55497;SDS011;41357;52.806;18.268;2024-01-30T08:02:56;38.22;;;15.60;;
55497;SDS011;41357;52.806;18.268;2024-01-30T08:05:22;46.83;;;17.10;;
55497;SDS011;41357;52.806;18.268;2024-01-30T08:07:49;31.10;;;13.50;;
55497;SDS011;41357;52.806;18.268;2024-01-30T08:10:15;23.40;;;12.00;;
55497;SDS011;41357;52.806;18.268;2024-01-30T08:12:43;31.73;;;10.82;;
55497;SDS011;41357;52.806;18.268;2024-01-30T08:15:10;34.08;;;12.00;;
55497;SDS011;41357;52.806;18.268;2024-01-30T08:17:37;24.90;;;10.98;;
55497;SDS011;41357;52.806;18.268;2024-01-30T08:20:03;36.63;;;12.75;;
55497;SDS011;41357;52.806;18.268;2024-01-30T08:22:30;53.35;;;17.90;;
55497;SDS011;41357;52.806;18.268;2024-01-30T08:24:56;35.10;;;11.52;;
55497;SDS011;41357;52.806;18.268;2024-01-30T08:27:22;31.45;;;11.35;;
55497;SDS011;41357;52.806;18.268;2024-01-30T08:29:48;29.48;;;10.65;;
55497;SDS011;41357;52.806;18.268;2024-01-30T08:32:15;26.58;;;10.30;;
55497;SDS011;41357;52.806;18.268;2024-01-30T08:34:41;35.90;;;11.32;;
55497;SDS011;41357;52.806;18.268;2024-01-30T08:37:07;22.95;;;8.60;;
55497;SDS011;41357;52.806;18.268;2024-01-30T08:39:33;16.50;;;8.02;;
55497;SDS011;41357;52.806;18.268;2024-01-30T08:41:59;17.15;;;7.78;;
55497;SDS011;41357;52.806;18.268;2024-01-30T08:44:26;19.63;;;8.25;;
55497;SDS011;41357;52.806;18.268;2024-01-30T08:46:52;22.80;;;8.55;;
55497;SDS011;41357;52.806;18.268;2024-01-30T08:49:19;20.02;;;8.27;;
55497;SDS011;41357;52.806;18.268;2024-01-30T08:51:46;15.60;;;7.00;;
55497;SDS011;41357;52.806;18.268;2024-01-30T08:54:12;18.95;;;7.63;;
55497;SDS011;41357;52.806;18.268;2024-01-30T08:56:38;18.45;;;8.40;;
55497;SDS011;41357;52.806;18.268;2024-01-30T08:59:04;20.55;;;8.40;;
55497;SDS011;41357;52.806;18.268;2024-01-30T09:01:30;19.25;;;7.95;;
55497;SDS011;41357;52.806;18.268;2024-01-30T09:03:56;19.85;;;6.95;;
55497;SDS011;41357;52.806;18.268;2024-01-30T09:06:23;18.48;;;7.35;;
55497;SDS011;41357;52.806;18.268;2024-01-30T09:08:51;15.43;;;7.25;;
55497;SDS011;41357;52.806;18.268;2024-01-30T09:11:17;18.08;;;6.55;;
55497;SDS011;41357;52.806;18.268;2024-01-30T09:13:44;16.23;;;7.38;;
55497;SDS011;41357;52.806;18.268;2024-01-30T09:16:10;18.58;;;8.00;;
55497;SDS011;41357;52.806;18.268;2024-01-30T09:18:37;19.80;;;9.57;;
55497;SDS011;41357;52.806;18.268;2024-01-30T09:21:03;24.40;;;8.68;;
55497;SDS011;41357;52.806;18.268;2024-01-30T09:23:29;24.20;;;7.88;;
55497;SDS011;41357;52.806;18.268;2024-01-30T09:25:55;18.83;;;9.30;;
55497;SDS011;41357;52.806;18.268;2024-01-30T09:28:21;17.88;;;8.48;;
55497;SDS011;41357;52.806;18.268;2024-01-30T09:30:48;20.77;;;8.75;;
55497;SDS011;41357;52.806;18.268;2024-01-30T09:33:14;21.17;;;7.95;;
55497;SDS011;41357;52.806;18.268;2024-01-30T09:35:40;22.35;;;8.40;;
55497;SDS011;41357;52.806;18.268;2024-01-30T09:38:06;15.10;;;7.53;;
55497;SDS011;41357;52.806;18.268;2024-01-30T09:40:32;23.25;;;8.10;;
55497;SDS011;41357;52.806;18.268;2024-01-30T09:42:58;16.98;;;6.93;;
55497;SDS011;41357;52.806;18.268;2024-01-30T09:45:27;21.67;;;8.32;;
55497;SDS011;41357;52.806;18.268;2024-01-30T09:47:53;21.63;;;8.77;;
55497;SDS011;41357;52.806;18.268;2024-01-30T09:50:20;24.88;;;9.35;;
55497;SDS011;41357;52.806;18.268;2024-01-30T09:52:47;17.90;;;9.00;;
55497;SDS011;41357;52.806;18.268;2024-01-30T09:55:13;26.02;;;10.88;;
55497;SDS011;41357;52.806;18.268;2024-01-30T09:57:41;27.67;;;10.75;;
55497;SDS011;41357;52.806;18.268;2024-01-30T10:00:07;22.40;;;10.20;;
55497;SDS011;41357;52.806;18.268;2024-01-30T10:02:34;28.92;;;9.75;;
55497;SDS011;41357;52.806;18.268;2024-01-30T10:05:00;21.40;;;10.15;;
55497;SDS011;41357;52.806;18.268;2024-01-30T10:07:27;22.88;;;10.95;;
55497;SDS011;41357;52.806;18.268;2024-01-30T10:09:53;26.52;;;11.38;;
55497;SDS011;41357;52.806;18.268;2024-01-30T10:12:22;30.98;;;10.88;;
55497;SDS011;41357;52.806;18.268;2024-01-30T10:14:49;35.22;;;14.15;;
55497;SDS011;41357;52.806;18.268;2024-01-30T10:17:15;27.52;;;12.48;;
55497;SDS011;41357;52.806;18.268;2024-01-30T10:19:41;14.20;;;6.53;;
55497;SDS011;41357;52.806;18.268;2024-01-30T10:22:07;27.70;;;11.10;;
55497;SDS011;41357;52.806;18.268;2024-01-30T10:24:34;31.73;;;12.40;;
55497;SDS011;41357;52.806;18.268;2024-01-30T10:27:00;26.73;;;11.43;;
55497;SDS011;41357;52.806;18.268;2024-01-30T10:29:27;27.50;;;10.32;;
55497;SDS011;41357;52.806;18.268;2024-01-30T10:32:03;21.02;;;9.85;;
55497;SDS011;41357;52.806;18.268;2024-01-30T10:34:29;26.83;;;11.10;;
55497;SDS011;41357;52.806;18.268;2024-01-30T10:36:59;31.08;;;13.05;;
55497;SDS011;41357;52.806;18.268;2024-01-30T10:39:28;33.30;;;13.75;;
55497;SDS011;41357;52.806;18.268;2024-01-30T10:41:59;31.30;;;12.38;;
55497;SDS011;41357;52.806;18.268;2024-01-30T10:44:27;30.42;;;12.50;;
55497;SDS011;41357;52.806;18.268;2024-01-30T10:46:56;31.83;;;13.23;;
55497;SDS011;41357;52.806;18.268;2024-01-30T10:49:25;45.08;;;16.35;;
55497;SDS011;41357;52.806;18.268;2024-01-30T10:51:52;28.65;;;11.68;;
55497;SDS011;41357;52.806;18.268;2024-01-30T10:54:18;22.58;;;11.25;;
55497;SDS011;41357;52.806;18.268;2024-01-30T10:56:45;34.60;;;12.02;;
55497;SDS011;41357;52.806;18.268;2024-01-30T10:59:12;20.50;;;10.32;;
55497;SDS011;41357;52.806;18.268;2024-01-30T11:01:38;20.33;;;9.52;;
55497;SDS011;41357;52.806;18.268;2024-01-30T11:04:05;21.70;;;9.23;;
55497;SDS011;41357;52.806;18.268;2024-01-30T11:06:32;25.25;;;9.35;;
55497;SDS011;41357;52.806;18.268;2024-01-30T11:09:09;22.50;;;8.77;;
55497;SDS011;41357;52.806;18.268;2024-01-30T11:14:24;16.20;;;7.63;;
55497;SDS011;41357;52.806;18.268;2024-01-30T11:16:51;19.85;;;8.73;;
55497;SDS011;41357;52.806;18.268;2024-01-30T11:19:23;15.73;;;7.32;;
55497;SDS011;41357;52.806;18.268;2024-01-30T11:22:08;28.15;;;9.57;;
55497;SDS011;41357;52.806;18.268;2024-01-30T11:24:41;26.35;;;12.25;;
55497;SDS011;41357;52.806;18.268;2024-01-30T11:27:10;25.65;;;10.18;;
55497;SDS011;41357;52.806;18.268;2024-01-30T11:29:36;21.67;;;9.25;;
55497;SDS011;41357;52.806;18.268;2024-01-30T11:32:02;20.30;;;9.23;;
55497;SDS011;41357;52.806;18.268;2024-01-30T11:34:29;29.65;;;10.00;;
55497;SDS011;41357;52.806;18.268;2024-01-30T11:36:59;24.98;;;9.00;;
55497;SDS011;41357;52.806;18.268;2024-01-30T11:39:25;21.17;;;7.75;;
55497;SDS011;41357;52.806;18.268;2024-01-30T11:41:52;22.65;;;7.18;;
55497;SDS011;41357;52.806;18.268;2024-01-30T11:44:21;22.52;;;8.75;;
55497;SDS011;41357;52.806;18.268;2024-01-30T11:46:48;28.23;;;9.98;;
55497;SDS011;41357;52.806;18.268;2024-01-30T11:49:14;25.10;;;9.27;;
55497;SDS011;41357;52.806;18.268;2024-01-30T11:51:47;24.92;;;9.45;;
55497;SDS011;41357;52.806;18.268;2024-01-30T11:54:24;17.95;;;8.13;;
55497;SDS011;41357;52.806;18.268;2024-01-30T11:56:50;27.73;;;9.45;;
55497;SDS011;41357;52.806;18.268;2024-01-30T11:59:16;14.70;;;7.60;;
55497;SDS011;41357;52.806;18.268;2024-01-30T12:01:42;18.83;;;8.90;;
55497;SDS011;41357;52.806;18.268;2024-01-30T12:04:08;20.20;;;8.48;;
55497;SDS011;41357;52.806;18.268;2024-01-30T12:06:35;26.73;;;10.93;;
55497;SDS011;41357;52.806;18.268;2024-01-30T12:09:02;25.10;;;10.15;;
55497;SDS011;41357;52.806;18.268;2024-01-30T12:11:47;23.83;;;9.40;;
55497;SDS011;41357;52.806;18.268;2024-01-30T12:14:14;22.20;;;9.65;;
55497;SDS011;41357;52.806;18.268;2024-01-30T12:16:42;27.75;;;10.27;;
55497;SDS011;41357;52.806;18.268;2024-01-30T12:19:08;20.45;;;7.90;;
55497;SDS011;41357;52.806;18.268;2024-01-30T12:21:34;18.35;;;8.90;;
55497;SDS011;41357;52.806;18.268;2024-01-30T12:24:01;20.92;;;8.02;;
55497;SDS011;41357;52.806;18.268;2024-01-30T12:26:27;24.70;;;9.13;;
55497;SDS011;41357;52.806;18.268;2024-01-30T12:28:56;22.90;;;7.68;;
55497;SDS011;41357;52.806;18.268;2024-01-30T12:31:27;28.33;;;10.35;;
55497;SDS011;41357;52.806;18.268;2024-01-30T12:33:53;26.73;;;11.25;;
55497;SDS011;41357;52.806;18.268;2024-01-30T12:36:21;27.25;;;10.95;;
55497;SDS011;41357;52.806;18.268;2024-01-30T12:38:47;18.77;;;8.07;;
55497;SDS011;41357;52.806;18.268;2024-01-30T12:41:14;20.95;;;10.70;;
55497;SDS011;41357;52.806;18.268;2024-01-30T12:43:40;33.40;;;12.15;;
55497;SDS011;41357;52.806;18.268;2024-01-30T12:46:06;22.40;;;9.63;;
55497;SDS011;41357;52.806;18.268;2024-01-30T12:48:32;30.38;;;9.65;;
55497;SDS011;41357;52.806;18.268;2024-01-30T12:50:58;24.80;;;9.50;;
55497;SDS011;41357;52.806;18.268;2024-01-30T12:53:24;22.45;;;10.68;;
55497;SDS011;41357;52.806;18.268;2024-01-30T12:55:50;25.25;;;10.02;;
55497;SDS011;41357;52.806;18.268;2024-01-30T12:58:18;29.30;;;10.35;;
55497;SDS011;41357;52.806;18.268;2024-01-30T13:00:44;35.45;;;13.65;;
55497;SDS011;41357;52.806;18.268;2024-01-30T13:03:10;29.70;;;12.68;;
55497;SDS011;41357;52.806;18.268;2024-01-30T13:05:36;28.02;;;12.40;;
55497;SDS011;41357;52.806;18.268;2024-01-30T13:08:02;25.38;;;11.95;;
55497;SDS011;41357;52.806;18.268;2024-01-30T13:10:29;28.50;;;12.77;;
55497;SDS011;41357;52.806;18.268;2024-01-30T13:12:55;25.95;;;11.80;;
55497;SDS011;41357;52.806;18.268;2024-01-30T13:15:21;28.35;;;12.77;;
55497;SDS011;41357;52.806;18.268;2024-01-30T13:17:48;25.02;;;11.65;;
55497;SDS011;41357;52.806;18.268;2024-01-30T13:20:14;32.30;;;14.05;;
55497;SDS011;41357;52.806;18.268;2024-01-30T13:22:47;31.83;;;13.30;;
55497;SDS011;41357;52.806;18.268;2024-01-30T13:25:16;23.88;;;12.07;;
55497;SDS011;41357;52.806;18.268;2024-01-30T13:27:42;22.58;;;11.93;;
55497;SDS011;41357;52.806;18.268;2024-01-30T13:30:08;31.40;;;14.27;;
55497;SDS011;41357;52.806;18.268;2024-01-30T13:32:35;27.75;;;12.73;;
55497;SDS011;41357;52.806;18.268;2024-01-30T13:35:01;27.67;;;12.23;;
55497;SDS011;41357;52.806;18.268;2024-01-30T13:37:27;29.23;;;12.82;;
55497;SDS011;41357;52.806;18.268;2024-01-30T13:39:53;25.70;;;14.00;;
55497;SDS011;41357;52.806;18.268;2024-01-30T13:42:19;55.28;;;22.00;;
55497;SDS011;41357;52.806;18.268;2024-01-30T13:44:45;28.38;;;13.45;;
55497;SDS011;41357;52.806;18.268;2024-01-30T13:47:12;20.55;;;11.05;;
55497;SDS011;41357;52.806;18.268;2024-01-30T13:49:38;30.25;;;11.90;;
55497;SDS011;41357;52.806;18.268;2024-01-30T13:52:04;24.50;;;10.05;;
55497;SDS011;41357;52.806;18.268;2024-01-30T13:54:30;19.67;;;9.45;;
55497;SDS011;41357;52.806;18.268;2024-01-30T13:56:57;26.85;;;11.73;;
55497;SDS011;41357;52.806;18.268;2024-01-30T13:59:23;23.55;;;11.48;;
55497;SDS011;41357;52.806;18.268;2024-01-30T14:01:51;26.67;;;12.40;;
55497;SDS011;41357;52.806;18.268;2024-01-30T14:04:17;23.45;;;11.00;;
55497;SDS011;41357;52.806;18.268;2024-01-30T14:06:43;24.30;;;10.27;;
55497;SDS011;41357;52.806;18.268;2024-01-30T14:09:09;31.65;;;15.48;;
55497;SDS011;41357;52.806;18.268;2024-01-30T14:11:36;31.75;;;15.43;;